createdAt,value
2018-10-12T00:01:19.392Z,96.49
2018-10-12T00:04:23.762Z,95.65
2018-10-12T00:07:28.082Z,95.50
2018-10-12T00:10:32.367Z,96.65
2018-10-12T00:13:36.648Z,96.58
2018-10-12T00:16:40.954Z,96.79
2018-10-12T00:19:45.201Z,97.14
2018-10-12T00:26:02.201Z,97.31
2018-10-12T00:29:06.615Z,97.89
2018-10-12T00:32:10.875Z,98.23
2018-10-12T00:35:15.207Z,97.94
2018-10-12T00:38:19.515Z,97.88
2018-10-12T00:41:23.804Z,96.87
2018-10-12T00:44:28.108Z,97.14
2018-10-12T00:47:32.371Z,97.32
2018-10-12T00:50:36.666Z,97.01
2018-10-12T00:53:40.970Z,97.22
2018-10-12T00:56:45.248Z,96.39
2018-10-12T00:59:49.530Z,96.33
2018-10-12T01:02:53.804Z,96.25
2018-10-12T01:05:58.072Z,96.83
2018-10-12T01:09:02.336Z,96.47
2018-10-12T01:12:31.520Z,96.81
2018-10-12T01:15:35.776Z,96.31
2018-10-12T01:18:40.032Z,96.43
2018-10-12T01:21:44.295Z,96.37
2018-10-12T01:24:48.574Z,95.98
2018-10-12T01:27:52.842Z,97.65
2018-10-12T01:30:57.156Z,98.42
2018-10-12T01:34:01.498Z,98.77
2018-10-12T01:37:05.768Z,98.93
2018-10-12T01:40:10.034Z,98.95
2018-10-12T01:43:14.345Z,98.89
2018-10-12T01:46:18.660Z,98.88
2018-10-12T01:49:22.892Z,98.77
2018-10-12T01:52:27.187Z,97.83
2018-10-12T01:55:31.467Z,97.82
2018-10-12T01:58:36.238Z,98.01
2018-10-12T02:01:40.510Z,97.70
2018-10-12T02:04:44.792Z,97.04
2018-10-12T02:07:49.053Z,97.45
2018-10-12T02:10:53.340Z,98.42
2018-10-12T02:13:57.627Z,99.54
2018-10-12T02:17:01.924Z,98.99
2018-10-12T02:20:06.281Z,98.84
2018-10-12T02:23:10.552Z,98.86
2018-10-12T02:26:14.798Z,99.07
2018-10-12T02:29:19.110Z,99.09
2018-10-12T02:32:23.371Z,99.61
2018-10-12T02:35:27.670Z,99.12
2018-10-12T02:38:31.976Z,98.54
2018-10-12T02:41:36.254Z,98.34
2018-10-12T02:44:40.501Z,98.35
2018-10-12T02:47:44.816Z,98.31
2018-10-12T02:50:49.105Z,98.37
2018-10-12T02:53:53.381Z,98.28
2018-10-12T02:56:57.681Z,98.59
2018-10-12T03:00:02.038Z,98.57
2018-10-12T03:03:06.334Z,99.98
2018-10-12T03:06:10.672Z,99.82
2018-10-12T03:09:14.976Z,100.00
2018-10-12T03:12:19.270Z,100.00
2018-10-12T03:15:23.529Z,100.00
2018-10-12T03:18:27.829Z,100.00
2018-10-12T03:21:32.438Z,100.00
2018-10-12T03:24:36.740Z,100.00
2018-10-12T03:27:58.472Z,100.00
2018-10-12T03:31:03.368Z,100.00
2018-10-12T03:34:07.641Z,100.00
2018-10-12T03:37:11.986Z,99.50
2018-10-12T03:40:16.501Z,100.00
2018-10-12T03:43:20.737Z,99.67
2018-10-12T03:46:25.027Z,99.67
2018-10-12T03:49:29.315Z,99.11
2018-10-12T03:52:33.639Z,98.63
2018-10-12T03:55:37.909Z,98.89
2018-10-12T03:58:42.215Z,98.89
2018-10-12T04:01:46.474Z,99.00
2018-10-12T04:04:50.768Z,98.71
2018-10-12T04:07:55.039Z,98.78
2018-10-12T04:10:59.341Z,98.80
2018-10-12T04:14:03.606Z,99.84
2018-10-12T04:17:07.888Z,99.20
2018-10-12T04:20:12.292Z,99.22
2018-10-12T04:23:16.614Z,98.56
2018-10-12T04:26:20.889Z,99.01
2018-10-12T04:29:25.190Z,98.62
2018-10-12T04:32:29.429Z,98.41
2018-10-12T04:35:33.745Z,98.88
2018-10-12T04:38:56.677Z,99.73
2018-10-12T04:42:00.997Z,99.28
2018-10-12T04:45:05.280Z,99.98
2018-10-12T04:48:09.604Z,100.00
2018-10-12T04:51:17.878Z,100.00
2018-10-12T04:54:22.468Z,100.00
2018-10-12T04:57:26.797Z,100.00
2018-10-12T05:00:31.136Z,100.00
2018-10-12T05:03:35.663Z,100.00
2018-10-12T05:06:39.997Z,100.00
2018-10-12T05:09:44.245Z,100.00
2018-10-12T05:12:48.569Z,100.00
2018-10-12T05:15:52.848Z,100.00
2018-10-12T05:18:57.123Z,100.00
2018-10-12T05:22:01.384Z,100.00
2018-10-12T05:25:05.656Z,100.00
2018-10-12T05:28:09.920Z,100.00
2018-10-12T05:31:14.248Z,100.00
2018-10-12T05:34:18.533Z,100.00
2018-10-12T05:37:22.852Z,100.00
2018-10-12T05:40:27.125Z,100.00
2018-10-12T05:43:31.648Z,100.00
2018-10-12T05:46:35.771Z,100.00
2018-10-12T05:49:57.206Z,100.00
2018-10-12T05:53:01.542Z,100.00
2018-10-12T05:56:06.708Z,100.00
2018-10-12T05:59:11.490Z,100.00
2018-10-12T06:02:15.717Z,100.00
2018-10-12T06:05:20.017Z,100.00
2018-10-12T06:08:24.276Z,100.00
2018-10-12T06:11:28.598Z,100.00
2018-10-12T06:14:32.880Z,100.00
2018-10-12T06:17:37.151Z,100.00
2018-10-12T06:20:41.400Z,100.00
2018-10-12T06:23:45.696Z,100.00
2018-10-12T06:26:49.969Z,100.00
2018-10-12T06:29:54.237Z,100.00
2018-10-12T06:32:58.659Z,100.00
2018-10-12T06:36:02.945Z,100.00
2018-10-12T06:39:07.298Z,100.00
2018-10-12T06:42:11.578Z,100.00
2018-10-12T06:45:15.866Z,100.00
2018-10-12T06:48:20.153Z,100.00
2018-10-12T06:51:24.540Z,100.00
2018-10-12T06:54:28.872Z,100.00
2018-10-12T06:57:33.130Z,100.00
2018-10-12T07:00:37.476Z,100.00
2018-10-12T07:03:41.919Z,100.00
2018-10-12T07:06:46.217Z,100.00
2018-10-12T07:09:50.489Z,100.00
2018-10-12T07:12:54.789Z,99.72
2018-10-12T07:15:59.041Z,99.16
2018-10-12T07:19:03.312Z,98.71
2018-10-12T07:22:07.601Z,98.31
2018-10-12T07:25:11.869Z,98.76
2018-10-12T07:28:16.186Z,98.79
2018-10-12T07:31:20.489Z,98.92
2018-10-12T07:34:24.746Z,98.53
2018-10-12T07:37:29.056Z,97.11
2018-10-12T07:40:33.309Z,97.20
2018-10-12T07:43:37.677Z,96.78
2018-10-12T07:46:41.965Z,96.29
2018-10-12T07:49:46.225Z,95.47
2018-10-12T07:52:50.549Z,93.27
2018-10-12T07:55:54.815Z,93.24
2018-10-12T07:58:59.118Z,93.11
2018-10-12T08:02:03.393Z,92.23
2018-10-12T08:05:07.758Z,92.43
2018-10-12T08:08:12.044Z,92.58
2018-10-12T08:11:16.384Z,91.83
2018-10-12T08:14:20.844Z,91.32
2018-10-12T08:17:24.906Z,91.09
2018-10-12T08:20:29.257Z,90.25
2018-10-12T08:23:33.506Z,89.52
2018-10-12T08:26:37.856Z,89.29
2018-10-12T08:29:42.141Z,88.74
2018-10-12T08:32:46.427Z,89.45
2018-10-12T08:35:50.750Z,88.64
2018-10-12T08:38:55.044Z,88.48
2018-10-12T08:41:59.453Z,87.24
2018-10-12T08:45:03.612Z,87.37
2018-10-12T08:48:08.028Z,87.34
2018-10-12T08:51:12.296Z,87.80
2018-10-12T08:54:16.580Z,87.83
2018-10-12T08:57:20.849Z,87.94
2018-10-12T09:00:25.678Z,87.27
2018-10-12T09:03:29.975Z,87.11
2018-10-12T09:06:34.253Z,87.61
2018-10-12T09:09:38.579Z,87.58
2018-10-12T09:12:42.825Z,87.07
2018-10-12T09:15:47.108Z,87.09
2018-10-12T09:18:51.380Z,88.46
2018-10-12T09:21:55.737Z,88.13
2018-10-12T09:25:00.027Z,88.70
2018-10-12T09:28:04.321Z,88.53
2018-10-12T09:31:08.596Z,87.85
2018-10-12T09:34:12.917Z,88.01
2018-10-12T09:37:17.202Z,87.74
2018-10-12T09:40:21.471Z,86.59
2018-10-12T09:43:25.822Z,87.36
2018-10-12T09:46:30.094Z,86.33
2018-10-12T09:49:34.389Z,86.43
2018-10-12T09:52:38.681Z,85.92
2018-10-12T09:55:43.024Z,85.49
2018-10-12T09:58:47.272Z,85.01
2018-10-12T10:01:56.851Z,85.97
2018-10-12T10:05:06.505Z,86.47
2018-10-12T10:08:10.891Z,86.01
2018-10-12T10:11:15.136Z,86.10
2018-10-12T10:14:19.468Z,86.88
2018-10-12T10:17:23.800Z,86.30
2018-10-12T10:20:28.076Z,87.26
2018-10-12T10:23:32.373Z,86.51
2018-10-12T10:26:36.665Z,86.31
2018-10-12T10:29:40.995Z,86.92
2018-10-12T10:32:45.268Z,88.28
2018-10-12T10:35:49.546Z,87.34
2018-10-12T10:38:53.880Z,87.97
2018-10-12T10:41:58.171Z,88.43
2018-10-12T10:45:02.443Z,87.57
2018-10-12T10:48:06.786Z,87.24
2018-10-12T10:51:11.056Z,87.89
2018-10-12T10:54:15.410Z,86.47
2018-10-12T10:57:19.713Z,85.71
2018-10-12T11:00:24.261Z,85.69
2018-10-12T11:03:28.534Z,86.41
2018-10-12T11:06:32.826Z,86.61
2018-10-12T11:09:37.080Z,85.86
2018-10-12T11:12:41.804Z,85.47
2018-10-12T11:15:46.127Z,85.90
2018-10-12T11:18:50.408Z,85.64
2018-10-12T11:21:54.747Z,86.43
2018-10-12T11:24:59.125Z,87.56
2018-10-12T11:28:03.429Z,86.17
2018-10-12T11:31:08.511Z,83.94
2018-10-12T11:34:12.780Z,83.47
2018-10-12T11:37:17.103Z,83.85
2018-10-12T11:40:21.388Z,83.49
2018-10-12T11:43:35.681Z,83.45
2018-10-12T11:46:40.025Z,83.56
2018-10-12T11:49:44.361Z,83.70
2018-10-12T11:52:48.681Z,84.16
2018-10-12T11:55:53.002Z,83.79
2018-10-12T11:58:57.316Z,82.69
2018-10-12T12:02:01.632Z,82.59
2018-10-12T12:05:06.092Z,80.38
2018-10-12T12:08:10.993Z,79.57
2018-10-12T12:11:15.284Z,80.08
2018-10-12T12:14:19.604Z,78.76
2018-10-12T12:17:23.916Z,78.41
2018-10-12T12:20:28.435Z,78.33
2018-10-12T12:23:32.736Z,79.20
2018-10-12T12:26:37.019Z,77.24
2018-10-12T12:29:41.352Z,77.68
2018-10-12T12:32:45.695Z,77.05
2018-10-12T12:35:50.395Z,77.76
2018-10-12T12:38:54.280Z,75.88
2018-10-12T12:41:58.564Z,76.15
2018-10-12T12:45:02.851Z,75.98
2018-10-12T12:48:07.193Z,75.67
2018-10-12T12:51:12.279Z,75.25
2018-10-12T12:54:16.541Z,75.08
2018-10-12T12:57:20.817Z,74.96
2018-10-12T13:00:25.103Z,74.44
2018-10-12T13:03:29.371Z,74.56
2018-10-12T13:06:33.762Z,75.43
2018-10-12T13:09:37.980Z,74.42
2018-10-12T13:12:42.263Z,76.22
2018-10-12T13:15:46.705Z,74.97
2018-10-12T13:18:50.994Z,73.56
2018-10-12T13:21:55.238Z,72.21
2018-10-12T13:24:59.565Z,72.91
2018-10-12T13:28:03.803Z,72.32
2018-10-12T13:31:08.125Z,73.23
2018-10-12T13:34:12.438Z,73.45
2018-10-12T13:37:16.726Z,75.23
2018-10-12T13:40:21.053Z,74.88
2018-10-12T13:43:25.365Z,75.07
2018-10-12T13:46:29.684Z,75.87
2018-10-12T13:49:33.950Z,74.99
2018-10-12T13:52:38.270Z,74.83
2018-10-12T13:55:42.537Z,73.77
2018-10-12T13:58:46.849Z,74.21
2018-10-12T14:01:51.079Z,73.89
2018-10-12T14:04:55.395Z,73.97
2018-10-12T14:07:59.681Z,74.92
2018-10-12T14:11:04.001Z,74.91
2018-10-12T14:14:08.223Z,74.86
2018-10-12T14:17:12.481Z,74.41
2018-10-12T14:20:16.753Z,76.00
2018-10-12T14:23:20.998Z,76.31
2018-10-12T14:26:25.302Z,76.19
2018-10-12T14:29:29.556Z,77.09
2018-10-12T14:32:33.867Z,76.45
2018-10-12T14:35:38.132Z,77.34
2018-10-12T14:38:42.452Z,77.72
2018-10-12T14:41:46.697Z,77.13
2018-10-12T14:44:51.068Z,78.09
2018-10-12T14:47:55.355Z,78.32
2018-10-12T14:50:59.620Z,78.95
2018-10-12T14:54:03.922Z,78.94
2018-10-12T14:57:13.736Z,80.07
2018-10-12T15:00:18.051Z,80.27
2018-10-12T15:03:22.344Z,80.26
2018-10-12T15:06:26.640Z,80.22
2018-10-12T15:09:30.908Z,81.37
2018-10-12T15:12:35.209Z,80.20
2018-10-12T15:15:39.465Z,80.93
2018-10-12T15:18:43.804Z,80.85
2018-10-12T15:21:48.136Z,79.87
2018-10-12T15:24:52.446Z,79.91
2018-10-12T15:27:56.744Z,81.03
2018-10-12T15:31:01.015Z,80.86
2018-10-12T15:34:05.251Z,81.47
2018-10-12T15:37:09.580Z,82.71
2018-10-12T15:40:13.849Z,83.84
2018-10-12T15:43:18.198Z,84.33
2018-10-12T15:46:22.405Z,83.92
2018-10-12T15:49:26.732Z,84.72
2018-10-12T15:52:31.113Z,84.95
2018-10-12T15:55:35.374Z,85.45
2018-10-12T15:58:39.640Z,85.31
2018-10-12T16:01:43.913Z,85.19
2018-10-12T16:04:48.234Z,86.06
2018-10-12T16:07:52.522Z,85.65
2018-10-12T16:10:56.838Z,87.04
2018-10-12T16:14:01.115Z,87.55
2018-10-12T16:17:05.377Z,87.50
2018-10-12T16:20:09.624Z,88.65
2018-10-12T16:23:13.890Z,88.89
2018-10-12T16:26:22.868Z,89.95
2018-10-12T16:29:27.160Z,89.69
2018-10-12T16:32:31.490Z,91.00
2018-10-12T16:35:35.735Z,91.29
2018-10-12T16:38:40.083Z,91.10
2018-10-12T16:41:44.377Z,92.26
2018-10-12T16:44:48.632Z,92.02
2018-10-12T16:47:52.929Z,92.96
2018-10-12T16:50:57.204Z,92.51
2018-10-12T16:54:01.460Z,93.18
2018-10-12T16:57:05.736Z,93.75
2018-10-12T17:00:10.045Z,93.91
2018-10-12T17:03:14.334Z,94.47
2018-10-12T17:06:18.654Z,94.13
2018-10-12T17:09:22.895Z,94.33
2018-10-12T17:12:27.180Z,94.96
2018-10-12T17:15:31.509Z,94.76
2018-10-12T17:18:35.778Z,94.57
2018-10-12T17:21:40.025Z,94.95
2018-10-12T17:24:44.305Z,94.88
2018-10-12T17:27:48.676Z,94.80
2018-10-12T17:30:52.961Z,94.87
2018-10-12T17:33:57.230Z,95.13
2018-10-12T17:37:01.531Z,95.39
2018-10-12T17:40:06.054Z,96.01
2018-10-12T17:43:10.584Z,96.03
2018-10-12T17:46:15.035Z,95.45
2018-10-12T17:49:19.307Z,96.13
2018-10-12T17:52:23.586Z,95.99
2018-10-12T17:55:27.827Z,96.25
2018-10-12T17:58:32.724Z,96.03
2018-10-12T18:01:36.969Z,96.62
2018-10-12T18:04:41.216Z,95.99
2018-10-12T18:07:45.463Z,96.29
2018-10-12T18:10:49.777Z,96.99
2018-10-12T18:13:54.008Z,96.79
2018-10-12T18:16:58.276Z,97.29
2018-10-12T18:20:02.550Z,96.66
2018-10-12T18:23:06.974Z,97.13
2018-10-12T18:26:11.264Z,98.19
2018-10-12T18:29:15.913Z,97.79
2018-10-12T18:32:20.192Z,97.96
2018-10-12T18:35:24.498Z,97.95
2018-10-12T18:38:28.802Z,98.04
2018-10-12T18:41:33.103Z,98.31
2018-10-12T18:44:37.369Z,98.56
2018-10-12T18:47:41.711Z,98.09
2018-10-12T18:50:45.929Z,98.27
2018-10-12T18:53:50.234Z,97.87
2018-10-12T18:56:54.511Z,97.83
2018-10-12T18:59:58.855Z,98.77
2018-10-12T19:03:03.152Z,98.01
2018-10-12T19:06:07.445Z,98.75
2018-10-12T19:09:11.712Z,98.21
2018-10-12T19:12:16.037Z,98.54
2018-10-12T19:15:20.324Z,99.23
2018-10-12T19:18:24.616Z,99.16
2018-10-12T19:21:28.928Z,99.10
2018-10-12T19:24:33.206Z,99.00
2018-10-12T19:27:37.493Z,98.94
2018-10-12T19:30:41.811Z,99.14
2018-10-12T19:33:46.090Z,99.66
2018-10-12T19:36:50.390Z,99.79
2018-10-12T19:39:54.683Z,99.02
2018-10-12T19:42:59.007Z,99.43
2018-10-12T19:46:03.268Z,99.97
2018-10-12T19:49:07.561Z,100.00
2018-10-12T19:52:11.807Z,99.65
2018-10-12T19:55:16.133Z,99.71
2018-10-12T19:58:20.445Z,99.97
2018-10-12T20:01:24.758Z,100.00
2018-10-12T20:04:29.053Z,100.00
2018-10-12T20:07:33.345Z,100.00
2018-10-12T20:10:37.672Z,100.00
2018-10-12T20:13:41.926Z,100.00
2018-10-12T20:16:46.248Z,100.00
2018-10-12T20:19:50.512Z,100.00
2018-10-12T20:22:54.829Z,100.00
2018-10-12T20:25:59.091Z,100.00
2018-10-12T20:29:03.341Z,100.00
2018-10-12T20:32:08.110Z,100.00
2018-10-12T20:35:12.372Z,100.00
2018-10-12T20:38:17.181Z,100.00
2018-10-12T20:41:21.832Z,100.00
2018-10-12T20:44:26.151Z,100.00
2018-10-12T20:47:31.508Z,100.00
2018-10-12T20:50:36.435Z,100.00
2018-10-12T20:53:41.197Z,100.00
2018-10-12T20:56:45.474Z,100.00
2018-10-12T20:59:50.339Z,100.00
2018-10-12T21:02:54.923Z,100.00
2018-10-12T21:05:59.788Z,100.00
2018-10-12T21:09:06.229Z,100.00
2018-10-12T21:12:10.905Z,99.97
2018-10-12T21:15:15.233Z,100.00
2018-10-12T21:18:19.799Z,100.00
2018-10-12T21:21:24.332Z,99.89
2018-10-12T21:24:28.945Z,100.00
2018-10-12T21:27:33.580Z,99.54
2018-10-12T21:30:38.459Z,99.07
2018-10-12T21:33:43.569Z,99.09
2018-10-12T21:36:48.268Z,99.10
2018-10-12T21:39:52.557Z,99.02
2018-10-12T21:42:56.875Z,99.13
2018-10-12T21:46:01.142Z,98.54
2018-10-12T21:49:05.426Z,98.13
2018-10-12T21:52:10.181Z,98.58
2018-10-12T21:55:14.466Z,97.61
2018-10-12T21:58:18.722Z,97.62
2018-10-12T22:01:23.025Z,97.37
2018-10-12T22:04:27.262Z,97.79
2018-10-12T22:07:31.551Z,97.21
2018-10-12T22:10:35.826Z,96.89
2018-10-12T22:13:40.112Z,96.13
2018-10-12T22:16:44.389Z,96.21
2018-10-12T22:19:48.913Z,95.77
2018-10-12T22:22:53.284Z,95.12
2018-10-12T22:25:57.638Z,94.59
2018-10-12T22:29:01.859Z,95.06
2018-10-12T22:32:06.197Z,94.29
2018-10-12T22:35:10.466Z,94.28
2018-10-12T22:38:14.741Z,94.62
2018-10-12T22:41:19.015Z,93.87
2018-10-12T22:44:23.289Z,94.10
2018-10-12T22:47:27.585Z,94.14
2018-10-12T22:50:31.889Z,93.96
2018-10-12T22:53:36.142Z,94.20
2018-10-12T22:56:40.438Z,94.17
2018-10-12T22:59:44.718Z,93.71
2018-10-12T23:02:49.020Z,93.94
2018-10-12T23:05:53.272Z,93.21
2018-10-12T23:08:57.581Z,93.98
2018-10-12T23:12:01.873Z,93.88
2018-10-12T23:15:06.157Z,93.78
2018-10-12T23:18:10.429Z,94.57
2018-10-12T23:21:14.698Z,94.75
2018-10-12T23:24:18.992Z,94.73
2018-10-12T23:27:23.261Z,94.93
2018-10-12T23:30:27.575Z,94.25
2018-10-12T23:33:49.110Z,94.30
2018-10-12T23:36:53.391Z,94.33
2018-10-12T23:39:57.672Z,94.37
2018-10-12T23:43:01.967Z,94.18
2018-10-12T23:46:06.226Z,94.66
2018-10-12T23:49:10.476Z,94.35
2018-10-12T23:52:14.714Z,94.43
2018-10-12T23:55:18.987Z,94.69
2018-10-12T23:58:23.279Z,94.73
